Latest Weather Observations for Tennant Creek

IDD60801

Issued at 9:51 am CST Monday 16 September 2019 (issued every 10 minutes, with the page automatically refreshed every 10 minutes)

About weather observations | Map of weather stations | Latest weather observations for NT | Other Formats
Station Details ID: 015135 Name: TENNANT CREEK AIRPORT Lat: -19.64 Lon: 134.18 Height: 375.7 m
Data from the previous 72 hours. | See also: Recent months at Tennant Creek
Date/Time
CST
Temp
°C
App
Temp
°C
Dew
Point
°C
Rel
Hum
%
Delta-T
°C
Wind Press
QNH
hPa
Press
MSL
hPa
Rain since
9am
mm
Dir  Spd
km/h
Gust
km/h
Spd
kts
Gust
kts
16/09:30am 28.2 24.1 8.5 29 10.9 NNW 20 28 11 15 1020.2 1018.2 0.0
16/09:00am 26.8 22.6 8.3 31 10.1 NNW 20 28 11 15 1020.2 1018.2 0.0
16/08:30am 25.1 21.4 8.1 34 9.2 NNW 17 24 9 13 1020.1 1018.1 0.0
16/08:00am 22.5 18.1 5.0 32 8.8 N 17 26 9 14 1019.9 1017.9 0.0
16/07:30am 21.8 16.6 5.3 34 8.3 N 22 30 12 16 1019.7 1017.7 0.0
16/07:00am 19.1 13.9 0.2 28 8.5 NNE 17 22 9 12 1019.5 1017.5 0.0
16/06:30am 18.6 13.0 -2.9 23 9.0 NNE 17 20 9 11 1019.3 1017.3 0.0
16/06:00am 18.3 12.9 -8.7 15 10.0 ENE 13 17 7 9 1019.1 1017.1 0.0
16/05:30am 19.3 13.0 -10.8 12 10.8 E 17 20 9 11 1018.8 1016.8 0.0
16/05:00am 18.7 12.3 -11.2 12 10.6 E 17 17 9 9 1018.5 1016.5 0.0
16/04:30am 20.2 13.4 -11.2 11 11.3 ESE 19 24 10 13 1018.2 1016.1 0.0
16/04:00am 19.1 13.1 -10.9 12 10.8 ESE 15 19 8 10 1017.5 1015.5 0.0
16/03:30am 19.3 13.3 -10.8 12 10.8 ESE 15 19 8 10 1017.4 1015.4 0.0
16/03:00am 18.4 12.8 -11.5 12 10.5 ESE 13 15 7 8 1017.7 1015.6 0.0
16/02:30am 19.7 14.4 -12.7 10 11.3 ESE 11 13 6 7 1017.8 1015.7 0.0
16/02:00am 19.7 14.4 -12.7 10 11.3 ESE 11 13 6 7 1017.8 1015.7 0.0
16/01:30am 21.4 15.7 -12.7 9 12.1 ESE 13 13 7 7 1017.9 1015.8 0.0
16/01:00am 22.4 16.7 -12.0 9 12.5 SE 13 17 7 9 1018.1 1016.0 0.0
16/12:30am 21.6 16.3 -12.6 9 12.2 ESE 11 11 6 6 1018.1 1016.0 0.0
16/12:00am 21.8 16.9 -12.4 9 12.3 ESE 9 11 5 6 1018.2 1016.1 0.0
 
Date/Time
CST
Temp
°C
App
Temp
°C
Dew
Point
°C
Rel
Hum
%
Delta-T
°C
Wind Press
QNH
hPa
Press
MSL
hPa
Rain since
9am
mm
Dir  Spd
km/h
Gust
km/h
Spd
kts
Gust
kts
15/11:30pm 22.1 16.8 -12.2 9 12.4 E 11 13 6 7 1018.4 1016.4 0.0
15/11:00pm 22.7 17.4 -11.8 9 12.7 ESE 11 13 6 7 1018.4 1016.4 0.0
15/10:30pm 20.8 15.9 -11.9 10 11.7 E 9 11 5 6 1018.5 1016.5 0.0
15/10:00pm 23.8 18.6 -10.9 9 13.1 SE 11 13 6 7 1018.5 1016.5 0.0
15/09:30pm 21.0 16.0 -13.0 9 11.9 ESE 9 9 5 5 1018.4 1016.4 0.0
15/09:00pm 23.3 18.3 -12.8 8 13.1 ESE 9 9 5 5 1018.4 1016.4 0.0
15/08:30pm 23.0 18.1 -11.5 9 12.8 E 9 9 5 5 1018.2 1016.1 0.0
15/08:00pm 23.5 18.6 -12.6 8 13.2 E 9 9 5 5 1017.9 1015.8 0.0
15/07:30pm 25.8 21.2 -12.6 7 14.4 E 7 9 4 5 1017.7 1015.6 0.0
15/07:00pm 27.8 23.3 -11.1 7 15.3 ESE 7 11 4 6 1017.2 1015.2 0.0
15/06:30pm 29.9 24.6 -11.5 6 16.5 E 11 13 6 7 1016.9 1014.9 0.0
15/06:00pm 31.2 25.1 -12.9 5 17.3 ESE 15 19 8 10 1016.7 1014.7 0.0
15/05:30pm 31.6 25.9 -12.6 5 17.5 E 13 17 7 9 1016.8 1014.8 0.0
15/05:00pm 31.8 25.4 -12.4 5 17.6 E 17 28 9 15 1016.6 1014.6 0.0
15/04:30pm 32.2 25.8 -12.2 5 17.8 E 17 28 9 15 1016.6 1014.6 0.0
15/04:00pm 32.9 26.5 -11.7 5 18.2 ENE 17 32 9 17 1016.6 1014.6 0.0
15/03:30pm 32.5 24.4 -11.9 5 18.0 E 26 37 14 20 1016.7 1014.7 0.0
15/03:00pm 32.3 25.3 -12.1 5 17.9 E 20 32 11 17 1017.0 1015.0 0.0
15/02:30pm 32.2 24.8 -12.2 5 17.8 E 22 35 12 19 1017.3 1015.3 0.0
15/02:00pm 32.1 25.1 -12.2 5 17.8 E 20 35 11 19 1017.9 1015.8 0.0
15/01:30pm 32.1 25.8 -9.9 6 17.5 ENE 17 30 9 16 1018.3 1016.2 0.0
15/01:00pm 31.9 25.2 -10.1 6 17.4 E 19 30 10 16 1018.9 1016.9 0.0
15/12:30pm 31.1 24.2 -10.7 6 17.0 ESE 20 33 11 18 1019.5 1017.5 0.0
15/12:02pm 31.3 22.9 -10.5 6 17.1 E 28 46 15 25 1020.0 1018.0 0.0
15/12:00pm 31.2 23.5 -10.6 6 17.1 E 24 46 13 25 1020.0 1018.0 0.0
15/11:55am 31.3 22.9 -10.5 6 17.1 E 28 46 15 25 1020.1 1018.1 0.0
15/11:30am 30.2 22.1 -11.3 6 16.6 E 26 32 14 17 1020.5 1018.4 0.0
15/11:00am 30.2 21.4 -11.3 6 16.6 E 30 39 16 21 1020.9 1018.9 0.0
15/10:30am 28.9 21.3 -10.3 7 15.7 ENE 24 35 13 19 1021.3 1019.3 0.0
15/10:00am 28.6 19.8 -10.5 7 15.6 E 30 37 16 20 1021.5 1019.5 0.0
15/09:30am 27.4 20.2 -9.7 8 14.8 E 22 30 12 16 1021.8 1019.8 0.0
15/09:00am 25.5 17.9 -9.7 9 13.8 ESE 24 32 13 17 1021.8 1019.8 0.0
15/08:30am 23.9 17.2 -8.3 11 12.8 ESE 20 28 11 15 1021.8 1019.8 0.0
15/08:00am 22.2 15.1 -8.5 12 11.9 ESE 22 32 12 17 1021.6 1019.6 0.0
15/07:30am 20.6 13.9 -7.8 14 11.0 ESE 20 28 11 15 1021.2 1019.2 0.0
15/07:00am 19.8 13.6 -8.4 14 10.7 ESE 17 24 9 13 1020.9 1018.9 0.0
15/06:30am 18.8 12.6 -9.2 14 10.3 ESE 17 24 9 13 1020.3 1018.3 0.0
15/06:00am 19.8 13.2 -9.4 13 10.8 ESE 19 24 10 13 1019.8 1017.8 0.0
15/05:30am 19.2 13.0 -8.9 14 10.5 ESE 17 20 9 11 1019.5 1017.5 0.0
15/05:00am 19.5 13.2 -9.6 13 10.8 ESE 17 22 9 12 1019.3 1017.3 0.0
15/04:30am 19.7 13.5 -9.5 13 10.8 ESE 17 20 9 11 1019.1 1017.1 0.0
15/04:00am 19.3 13.1 -8.8 14 10.5 ESE 17 22 9 12 1018.9 1016.9 0.0
15/03:30am 18.3 12.8 -9.6 14 10.1 E 13 13 7 7 1018.9 1016.9 0.0
15/03:00am 20.5 15.0 -9.8 12 11.3 ESE 13 17 7 9 1019.0 1017.0 0.0
15/02:30am 19.3 13.4 -9.8 13 10.7 ESE 15 17 8 9 1019.3 1017.3 0.0
15/02:00am 19.8 14.6 -10.4 12 11.0 ESE 11 15 6 8 1019.4 1017.4 0.0
15/01:30am 19.3 14.2 -9.8 13 10.7 ESE 11 13 6 7 1019.6 1017.6 0.0
15/01:00am 20.6 14.7 -9.8 12 11.3 ESE 15 17 8 9 1019.7 1017.7 0.0
15/12:30am 21.2 16.0 -10.4 11 11.7 ESE 11 13 6 7 1019.8 1017.8 0.0
15/12:00am 21.8 16.3 -9.9 11 11.9 ESE 13 17 7 9 1019.7 1017.7 0.0
 
Date/Time
CST
Temp
°C
App
Temp
°C
Dew
Point
°C
Rel
Hum
%
Delta-T
°C
Wind Press
QNH
hPa
Press
MSL
hPa
Rain since
9am
mm
Dir  Spd
km/h
Gust
km/h
Spd
kts
Gust
kts
14/11:30pm 21.9 16.8 -9.9 11 12.0 ESE 11 13 6 7 1019.8 1017.8 0.0
14/11:00pm 22.9 17.4 -9.1 11 12.4 SE 13 15 7 8 1019.9 1017.9 0.0
14/10:30pm 22.7 17.6 -9.2 11 12.3 ESE 11 13 6 7 1020.1 1018.1 0.0
14/10:00pm 23.7 18.3 -8.5 11 12.7 ESE 13 15 7 8 1020.2 1018.2 0.0
14/09:30pm 24.2 19.2 -8.1 11 12.9 ESE 11 13 6 7 1020.1 1018.1 0.0
14/09:00pm 24.9 19.8 -8.8 10 13.4 ESE 11 15 6 8 1020.1 1018.1 0.0
14/08:30pm 25.6 20.2 -8.2 10 13.6 ESE 13 15 7 8 1019.9 1017.9 0.0
14/08:00pm 26.4 21.0 -9.0 9 14.2 ESE 13 15 7 8 1019.6 1017.6 0.0
14/07:30pm 27.4 22.0 -8.2 9 14.6 ESE 13 17 7 9 1019.3 1017.3 0.0
14/07:00pm 28.6 22.4 -8.8 8 15.4 ESE 17 22 9 12 1019.0 1017.0 0.0
14/06:30pm 29.7 23.0 -8.0 8 15.9 ESE 20 28 11 15 1018.6 1016.6 0.0
14/06:00pm 30.6 22.1 -7.4 8 16.3 E 30 35 16 19 1018.5 1016.5 0.0
14/05:30pm 31.4 24.7 -8.5 7 16.9 E 20 33 11 18 1018.2 1016.1 0.0
14/05:00pm 31.9 24.8 -8.1 7 17.2 E 22 39 12 21 1018.2 1016.1 0.0
14/04:30pm 32.1 25.0 -8.0 7 17.2 ENE 22 33 12 18 1018.3 1016.2 0.0
14/04:00pm 32.0 23.4 -8.1 7 17.2 ESE 30 41 16 22 1018.3 1016.2 0.0
14/03:30pm 31.9 23.7 -8.1 7 17.1 ESE 28 37 15 20 1018.3 1016.2 0.0
14/03:00pm 32.1 24.3 -8.0 7 17.2 ENE 26 39 14 21 1018.6 1016.6 0.0
14/02:30pm 31.8 22.8 -8.2 7 17.1 E 32 44 17 24 1019.0 1017.0 0.0
14/02:00pm 32.6 25.2 -7.6 7 17.5 E 24 33 13 18 1019.4 1017.4 0.0
14/01:30pm 31.8 22.8 -8.2 7 17.1 ESE 32 41 17 22 1020.1 1018.1 0.0
14/01:00pm 31.1 22.2 -7.0 8 16.6 E 32 44 17 24 1020.8 1018.8 0.0
14/12:30pm 31.1 22.6 -7.0 8 16.5 ESE 30 39 16 21 1021.3 1019.3 0.0
14/12:00pm 30.4 21.6 -6.0 9 15.9 E 32 43 17 23 1022.0 1020.0 0.0
14/11:42am 30.4 21.4 -6.0 9 16.0 E 33 50 18 27 1022.2 1020.2 0.0
14/11:30am 30.5 21.1 -5.9 9 16.0 E 35 46 19 25 1022.4 1020.4 0.0
14/11:00am 29.5 20.6 -6.7 9 15.6 E 32 50 17 27 1022.9 1020.9 0.0
14/10:30am 28.9 20.4 -7.1 9 15.3 E 30 39 16 21 1023.3 1021.3 0.0
14/10:00am 27.6 19.0 -8.1 9 14.8 E 30 37 16 20 1023.6 1021.6 0.0
14/09:30am 26.0 17.7 -9.3 9 14.0 ESE 28 35 15 19 1023.7 1021.7 0.0
14/09:00am 24.4 16.0 -10.5 9 13.3 ESE 28 35 15 19 1023.8 1021.8 0.0
14/08:30am 22.7 15.8 -10.4 10 12.4 ESE 20 30 11 16 1023.7 1021.7 0.0
14/08:00am 20.0 13.3 -10.2 12 11.1 ESE 19 26 10 14 1023.5 1021.5 0.0
14/07:30am 19.4 13.1 -10.7 12 10.8 ESE 17 24 9 13 1023.1 1021.2 0.0
14/07:00am 18.5 12.2 -10.4 13 10.4 ESE 17 19 9 10 1022.8 1020.8 0.0
14/06:30am 18.2 11.9 -10.6 13 10.2 ESE 17 22 9 12 1022.4 1020.4 0.0
14/06:00am 18.4 12.5 -10.5 13 10.3 ESE 15 19 8 10 1021.8 1019.8 0.0
14/05:30am 17.9 11.9 -10.9 13 10.1 ESE 15 19 8 10 1021.6 1019.6 0.0
14/05:00am 18.5 12.5 -11.4 12 10.5 ESE 15 19 8 10 1021.4 1019.4 0.0
14/04:30am 18.2 12.6 -10.6 13 10.2 ESE 13 17 7 9 1021.0 1019.0 0.0
14/04:00am 18.6 12.6 -11.3 12 10.6 ESE 15 19 8 10 1021.1 1019.1 0.0
14/03:30am 18.7 13.1 -11.2 12 10.6 ESE 13 17 7 9 1021.1 1019.1 0.0
14/03:00am 19.3 13.7 -10.8 12 10.8 ESE 13 19 7 10 1021.1 1019.1 0.0
14/02:30am 19.3 13.0 -10.8 12 10.8 ESE 17 22 9 12 1021.4 1019.4 0.0
14/02:00am 18.9 13.3 -11.1 12 10.7 ESE 13 17 7 9 1021.4 1019.4 0.0
14/01:30am 19.1 13.4 -12.0 11 10.9 ESE 13 17 7 9 1021.6 1019.6 0.0
14/01:00am 19.6 13.5 -12.8 10 11.2 ESE 15 17 8 9 1021.7 1019.7 0.0
14/12:30am 20.0 13.9 -12.5 10 11.4 ESE 15 20 8 11 1021.8 1019.8 0.0
14/12:00am 20.5 14.4 -13.4 9 11.7 SE 15 19 8 10 1021.7 1019.7 0.0
 
Date/Time
CST
Temp
°C
App
Temp
°C
Dew
Point
°C
Rel
Hum
%
Delta-T
°C
Wind Press
QNH
hPa
Press
MSL
hPa
Rain since
9am
mm
Dir  Spd
km/h
Gust
km/h
Spd
kts
Gust
kts
13/11:30pm 21.0 14.5 -13.0 9 11.9 ESE 17 24 9 13 1021.9 1019.9 0.0
13/11:00pm 21.5 15.4 -12.7 9 12.2 ESE 15 19 8 10 1021.8 1019.8 0.0
13/10:30pm 22.4 16.4 -12.0 9 12.5 SE 15 20 8 11 1021.8 1019.8 0.0
13/10:00pm 22.6 16.9 -11.8 9 12.6 ESE 13 19 7 10 1021.7 1019.7 0.0
13/09:30pm 23.3 17.3 -11.3 9 12.9 ESE 15 19 8 10 1021.7 1019.7 0.0
13/09:00pm 23.1 17.8 -11.5 9 12.8 ESE 11 13 6 7 1021.7 1019.7 0.0
13/08:30pm 24.7 18.7 -11.7 8 13.6 ESE 15 19 8 10 1021.5 1019.5 0.0
13/08:00pm 24.6 18.9 -11.8 8 13.6 ESE 13 15 7 8 1021.3 1019.3 0.0
13/07:30pm 25.9 19.9 -10.8 8 14.2 E 15 17 8 9 1021.1 1019.1 0.0
13/07:00pm 27.0 20.6 -11.7 7 14.9 ESE 17 26 9 14 1020.7 1018.6 0.0
13/06:30pm 27.9 20.2 -11.0 7 15.3 ESE 24 37 13 20 1020.3 1018.3 0.0
13/06:00pm 29.0 21.2 -12.2 6 16.0 ESE 24 32 13 17 1020.1 1018.1 0.0
13/05:30pm 29.6 22.6 -11.7 6 16.3 ESE 20 33 11 18 1020.1 1018.1 0.0
13/05:00pm 30.2 22.1 -11.3 6 16.6 E 26 41 14 22 1020.0 1018.0 0.0
13/04:30pm 30.1 22.0 -11.4 6 16.5 ESE 26 41 14 22 1020.1 1018.1 0.0
13/04:00pm 30.2 22.6 -9.4 7 16.4 SE 24 37 13 20 1020.1 1018.1 0.0
13/03:30pm 30.5 22.4 -11.1 6 16.7 E 26 41 14 22 1020.2 1018.2 0.0
13/03:00pm 29.8 21.8 -9.7 7 16.2 ESE 26 39 14 21 1020.5 1018.4 0.0
13/02:30pm 30.2 21.9 -9.4 7 16.3 ESE 28 37 15 20 1020.8 1018.8 0.0
13/02:00pm 29.5 20.8 -9.9 7 16.1 E 30 48 16 26 1021.2 1019.2 0.0
13/01:52pm 30.1 22.9 -9.4 7 16.3 ESE 22 48 12 26 1021.3 1019.3 0.0
13/01:30pm 29.1 21.1 -10.2 7 15.8 ESE 26 37 14 20 1021.8 1019.8 0.0
13/01:00pm 28.4 19.7 -9.0 8 15.3 E 30 43 16 23 1022.3 1020.3 0.0
13/12:40pm 28.9 20.6 -8.6 8 15.6 E 28 48 15 26 1022.6 1020.6 0.0
13/12:30pm 28.1 19.5 -7.7 9 14.9 E 30 44 16 24 1022.9 1020.9 0.0
13/12:00pm 28.0 18.9 -9.3 8 15.1 E 32 41 17 22 1023.4 1021.4 0.0
13/11:49am 28.7 20.0 -8.8 8 15.5 E 30 48 16 26 1023.5 1021.5 0.0
13/11:30am 27.4 18.1 -9.7 8 14.8 E 33 48 18 26 1023.7 1021.7 0.0
13/11:16am 27.5 18.2 -9.7 8 14.9 E 33 43 18 23 1024.0 1022.0 0.0
13/11:00am 27.2 16.7 -9.9 8 14.8 ESE 39 50 21 27 1024.2 1022.2 0.0
13/10:40am 27.0 16.9 -10.0 8 14.7 E 37 50 20 27 1024.4 1022.4 0.0
13/10:30am 26.5 15.6 -10.4 8 14.4 E 41 54 22 29 1024.5 1022.5 0.0
13/10:22am 26.4 15.9 -10.5 8 14.4 E 39 56 21 30 1024.5 1022.5 0.0
13/10:20am 26.4 16.3 -10.5 8 14.4 E 37 56 20 30 1024.6 1022.6 0.0
13/10:00am 26.2 16.5 -10.6 8 14.3 E 35 44 19 24 1024.8 1022.8 0.0

Other formats

Comma delimited format used in spreadsheet applications
http://www.bom.gov.au/fwo/IDD60801/IDD60801.94238.axf

JavaScript Object Notation format (JSON) in row-major order
http://www.bom.gov.au/fwo/IDD60801/IDD60801.94238.json

Data quality

Most of these data are generated automatically and are frequently updated. Quality checks on data are not normally performed. It is possible for incorrect values to appear. Refer to information at About Latest Weather Observations and please check the disclaimer before using these data.